Time;durP1;ratioP1;P1;durP2;ratioP2;P2;SDS_P1;SDS_P2;PMS_P1;PMS_P2;Temp;Humidity;BMP_temperature;BMP_pressure;BME280_temperature;BME280_humidity;BME280_pressure;Samples;Min_cycle;Max_cycle;Signal;HPM_P1;HPM_P2
2022/02/17 00:00:35;;;;;;;7.30;1.63;;;;;;;10.84;100.00;100180.78;5078293;28;20035;-74
2022/02/17 00:03:00;;;;;;;3.85;1.33;;;;;;;10.84;100.00;100178.00;5078437;28;20491;-74
2022/02/17 00:05:26;;;;;;;4.75;1.23;;;;;;;10.84;100.00;100180.78;5082429;28;20426;-74
2022/02/17 00:07:52;;;;;;;2.88;1.48;;;;;;;10.85;100.00;100192.69;5092691;28;20047;-74
2022/02/17 00:10:18;;;;;;;4.63;1.40;;;;;;;10.84;100.00;100194.66;5066443;28;20032;-74
2022/02/17 00:12:44;;;;;;;3.80;1.42;;;;;;;10.84;100.00;100200.22;5058988;28;20059;-74
2022/02/17 00:15:09;;;;;;;5.03;1.30;;;;;;;10.85;100.00;100214.94;5073767;28;20024;-74
2022/02/17 00:17:35;;;;;;;3.22;1.23;;;;;;;10.85;100.00;100215.75;5069565;28;20043;-74
2022/02/17 00:20:00;;;;;;;2.97;1.10;;;;;;;10.85;100.00;100214.94;5072290;28;20094;-74
2022/02/17 00:22:26;;;;;;;3.05;1.27;;;;;;;10.83;100.00;100223.56;5079735;28;20039;-74
2022/02/17 00:24:51;;;;;;;5.60;1.30;;;;;;;10.84;100.00;100214.09;5079973;28;20424;-74
2022/02/17 00:27:17;;;;;;;3.65;1.30;;;;;;;10.83;100.00;100218.00;5075674;28;20039;-74
2022/02/17 00:29:43;;;;;;;3.97;1.50;;;;;;;10.84;100.00;100219.66;5060551;28;20040;-74
2022/02/17 00:32:08;;;;;;;4.20;0.93;;;;;;;10.83;100.00;100222.72;5056146;28;20032;-74
2022/02/17 00:34:34;;;;;;;3.38;1.40;;;;;;;10.82;100.00;100238.56;5070239;28;20047;-74
2022/02/17 00:36:59;;;;;;;2.10;1.20;;;;;;;10.81;100.00;100234.16;5058948;28;20036;-74
2022/02/17 00:39:25;;;;;;;4.80;1.15;;;;;;;10.80;100.00;100238.03;5063305;28;20043;-75
2022/02/17 00:41:50;;;;;;;3.78;1.10;;;;;;;10.80;100.00;100251.13;5081538;28;20028;-74
2022/02/17 00:44:16;;;;;;;4.88;1.20;;;;;;;10.81;100.00;100255.53;5048337;28;20114;-74
2022/02/17 00:46:42;;;;;;;2.45;1.00;;;;;;;10.78;100.00;100248.66;5055109;28;20028;-74
2022/02/17 00:49:07;;;;;;;1.85;1.00;;;;;;;10.78;100.00;100257.00;5083070;28;20027;-74
2022/02/17 00:51:33;;;;;;;2.15;0.82;;;;;;;10.78;100.00;100258.91;5069047;28;20476;-74
2022/02/17 00:53:59;;;;;;;1.60;0.90;;;;;;;10.77;100.00;100257.28;5078435;28;20035;-74
2022/02/17 00:56:25;;;;;;;1.85;1.02;;;;;;;10.76;100.00;100255.63;5079262;28;20043;-74
2022/02/17 00:58:50;;;;;;;2.33;0.90;;;;;;;10.77;100.00;100260.06;5067499;28;20175;-74
2022/02/17 01:01:15;;;;;;;3.45;1.02;;;;;;;10.79;100.00;100249.47;5105140;28;20380;-74
2022/02/17 01:03:41;;;;;;;3.15;0.80;;;;;;;10.76;100.00;100250.91;5064647;28;20109;-74
2022/02/17 01:06:07;;;;;;;4.38;1.08;;;;;;;10.76;100.00;100262.00;5057963;28;20040;-74
2022/02/17 01:08:32;;;;;;;1.65;0.80;;;;;;;10.76;100.00;100275.91;5099352;28;20035;-74
2022/02/17 01:10:58;;;;;;;2.58;0.82;;;;;;;10.75;100.00;100268.69;5061769;28;20484;-74
2022/02/17 01:13:23;;;;;;;2.90;0.82;;;;;;;10.72;100.00;100283.16;5073314;28;20101;-74
2022/02/17 01:15:49;;;;;;;2.10;0.90;;;;;;;10.70;100.00;100289.03;5067298;28;20031;-74
2022/02/17 01:18:15;;;;;;;1.98;0.93;;;;;;;10.70;100.00;100302.13;5053859;28;20044;-74
2022/02/17 01:20:41;;;;;;;2.47;0.75;;;;;;;10.67;100.00;100322.97;5063932;28;20085;-74
2022/02/17 01:23:07;;;;;;;2.50;0.80;;;;;;;10.64;100.00;100331.91;5050566;28;20043;-74
2022/02/17 01:25:33;;;;;;;4.40;1.08;;;;;;;10.60;100.00;100330.84;5088222;28;20036;-74
2022/02/17 01:27:58;;;;;;;2.65;1.23;;;;;;;10.59;100.00;100328.38;5081283;28;20404;-74
2022/02/17 01:30:24;;;;;;;3.67;0.75;;;;;;;10.56;100.00;100317.84;5062598;28;20061;-74
2022/02/17 01:32:49;;;;;;;1.08;0.63;;;;;;;10.54;100.00;100320.09;5081362;28;20040;-74
2022/02/17 01:35:15;;;;;;;2.83;0.80;;;;;;;10.51;100.00;100318.75;5060412;28;20039;-74
2022/02/17 01:37:42;;;;;;;1.67;0.70;;;;;;;10.48;100.00;100320.16;5062842;28;20051;-74
2022/02/17 01:40:09;;;;;;;1.63;0.57;;;;;;;10.44;100.00;100324.66;5063950;28;20042;-74
2022/02/17 01:42:35;;;;;;;1.27;0.52;;;;;;;10.43;100.00;100336.88;5071796;28;20471;-74
2022/02/17 01:45:06;;;;;;;1.42;0.73;;;;;;;10.37;100.00;100332.53;5064160;28;20476;-74
2022/02/17 01:47:31;;;;;;;1.70;0.70;;;;;;;10.33;100.00;100334.22;5078336;28;20031;-74
2022/02/17 01:49:57;;;;;;;3.03;0.93;;;;;;;10.27;100.00;100339.03;5082397;28;20516;-74
2022/02/17 01:52:23;;;;;;;1.88;0.90;;;;;;;10.27;100.00;100352.09;5066100;28;20031;-74
2022/02/17 01:54:48;;;;;;;3.83;0.75;;;;;;;10.23;100.00;100353.78;5079713;28;20036;-74
2022/02/17 01:57:19;;;;;;;0.90;0.57;;;;;;;10.21;100.00;100344.91;5083126;28;20069;-74
2022/02/17 01:59:45;;;;;;;6.28;1.50;;;;;;;10.20;100.00;100341.31;5081136;28;20075;-74
2022/02/17 02:02:10;;;;;;;6.35;1.42;;;;;;;10.17;100.00;100343.84;5078564;28;20035;-74
2022/02/17 02:04:37;;;;;;;2.85;0.82;;;;;;;10.17;100.00;100332.72;5066051;28;20028;-74
2022/02/17 02:07:04;;;;;;;16.42;2.28;;;;;;;10.15;100.00;100346.09;5082345;28;20028;-74
2022/02/17 02:09:30;;;;;;;11.23;1.70;;;;;;;10.13;100.00;100345.56;5081107;28;20038;-74
2022/02/17 02:11:56;;;;;;;9.07;1.52;;;;;;;10.11;100.00;100353.34;5069321;28;20070;-74
2022/02/17 02:14:21;;;;;;;12.00;1.50;;;;;;;10.10;100.00;100344.19;5078356;28;20050;-74
2022/02/17 02:16:47;;;;;;;15.20;2.75;;;;;;;10.07;100.00;100342.84;5082787;28;20028;-74
2022/02/17 02:19:12;;;;;;;11.52;1.88;;;;;;;10.07;100.00;100347.56;5065103;28;20403;-74
2022/02/17 02:21:38;;;;;;;17.38;2.95;;;;;;;10.04;100.00;100357.31;5081322;28;20038;-74
2022/02/17 02:24:04;;;;;;;13.50;2.42;;;;;;;10.02;100.00;100356.75;5081334;28;20077;-74
2022/02/17 02:26:30;;;;;;;13.30;2.35;;;;;;;10.01;100.00;100351.53;5060408;28;20479;-74
2022/02/17 02:28:55;;;;;;;23.83;3.63;;;;;;;10.00;100.00;100356.25;5079159;28;20042;-74
2022/02/17 02:31:22;;;;;;;26.25;3.17;;;;;;;9.99;100.00;100359.31;5082964;28;20031;-75
2022/02/17 02:33:47;;;;;;;15.05;3.22;;;;;;;9.98;100.00;100364.03;5083715;28;20052;-74
2022/02/17 02:36:13;;;;;;;15.18;3.63;;;;;;;9.98;100.00;100358.50;5109416;27;20039;-74
2022/02/17 02:38:38;;;;;;;18.63;3.10;;;;;;;9.97;100.00;100351.28;5097977;27;20133;-74
2022/02/17 02:41:04;;;;;;;23.95;3.90;;;;;;;9.94;100.00;100351.03;5082174;27;20031;-74
2022/02/17 02:43:29;;;;;;;24.05;3.30;;;;;;;9.92;100.00;100354.13;5094399;27;20388;-74
2022/02/17 02:45:55;;;;;;;22.92;3.28;;;;;;;9.92;100.00;100343.03;5086089;27;20038;-74
2022/02/17 02:48:20;;;;;;;23.70;3.75;;;;;;;9.91;100.00;100337.75;5096288;28;20031;-74
2022/02/17 02:50:46;;;;;;;21.08;3.45;;;;;;;9.88;100.00;100321.69;5106977;28;20039;-74
2022/02/17 02:53:14;;;;;;;21.90;3.90;;;;;;;9.86;100.00;100319.22;5085208;27;20038;-74
2022/02/17 02:55:42;;;;;;;28.33;4.40;;;;;;;9.84;100.00;100324.25;5101271;27;20074;-74
2022/02/17 02:58:08;;;;;;;24.48;3.88;;;;;;;9.80;100.00;100325.94;5113995;28;20042;-74
2022/02/17 03:00:33;;;;;;;25.80;4.00;;;;;;;9.81;100.00;100322.06;5105569;27;20036;-74
2022/02/17 03:02:59;;;;;;;30.70;4.35;;;;;;;9.79;100.00;100322.34;5119897;27;20046;-74
2022/02/17 03:05:24;;;;;;;33.42;5.18;;;;;;;9.77;100.00;100329.31;5115000;27;20028;-74
2022/02/17 03:07:52;;;;;;;17.02;2.90;;;;;;;9.76;100.00;100333.19;5081530;27;20031;-74
2022/02/17 03:10:18;;;;;;;33.63;5.32;;;;;;;9.73;100.00;100350.44;5098683;28;20085;-74
2022/02/17 03:12:44;;;;;;;26.17;4.50;;;;;;;9.72;100.00;100357.94;5083753;27;20039;-74
2022/02/17 03:15:10;;;;;;;27.13;4.18;;;;;;;9.70;100.00;100362.94;5082863;27;20042;-74
2022/02/17 03:17:35;;;;;;;23.23;4.63;;;;;;;9.69;100.00;100366.81;5113048;27;20070;-74
2022/02/17 03:20:01;;;;;;;25.38;4.45;;;;;;;9.67;100.00;100362.66;5072764;28;20081;-74
2022/02/17 03:22:27;;;;;;;30.33;4.47;;;;;;;9.65;100.00;100362.16;5083657;28;20043;-74
2022/02/17 03:24:52;;;;;;;32.72;4.60;;;;;;;9.63;100.00;100357.72;5107012;28;20027;-74
2022/02/17 03:27:18;;;;;;;20.90;4.00;;;;;;;9.62;100.00;100344.97;5094236;27;20049;-74
2022/02/17 03:29:43;;;;;;;30.60;4.95;;;;;;;9.59;100.00;100341.97;5101879;27;20035;-74
2022/02/17 03:32:09;;;;;;;24.60;4.00;;;;;;;9.54;100.00;100337.28;5113460;28;20027;-74
2022/02/17 03:34:34;;;;;;;22.52;3.58;;;;;;;9.52;100.00;100345.06;5087839;28;20040;-74
2022/02/17 03:37:00;;;;;;;25.92;4.18;;;;;;;9.47;100.00;100336.81;5095504;28;20126;-74
2022/02/17 03:39:25;;;;;;;23.52;4.65;;;;;;;9.43;100.00;100340.44;5079913;28;20058;-74
2022/02/17 03:41:51;;;;;;;25.70;4.18;;;;;;;9.42;100.00;100350.72;5079501;28;20077;-74
2022/02/17 03:44:16;;;;;;;20.17;3.38;;;;;;;9.35;100.00;100355.75;5114589;28;20035;-74
2022/02/17 03:46:42;;;;;;;29.67;4.65;;;;;;;9.34;100.00;100356.88;5098112;28;20020;-74
2022/02/17 03:49:07;;;;;;;20.10;3.92;;;;;;;9.29;100.00;100362.47;5078844;28;20122;-74
2022/02/17 03:51:33;;;;;;;23.45;4.22;;;;;;;9.26;100.00;100382.44;5081226;28;20024;-74
2022/02/17 03:53:58;;;;;;;20.95;3.78;;;;;;;9.20;100.00;100398.28;5096718;28;20502;-74
2022/02/17 03:56:24;;;;;;;26.95;3.88;;;;;;;9.16;100.00;100398.03;5094637;28;20032;-74
2022/02/17 03:59:02;;;;;;;25.40;3.72;;;;;;;9.10;100.00;100407.47;5078497;28;20028;-74
2022/02/17 04:01:28;;;;;;;22.30;3.97;;;;;;;9.07;100.00;100412.75;5099407;28;20115;-74
2022/02/17 04:03:53;;;;;;;28.67;3.50;;;;;;;9.02;100.00;100424.69;5094382;28;20032;-74
2022/02/17 04:06:19;;;;;;;20.67;4.20;;;;;;;8.98;100.00;100420.03;5082094;28;20035;-74
2022/02/17 04:08:44;;;;;;;30.00;4.18;;;;;;;8.93;100.00;100445.78;5078112;28;20039;-74
2022/02/17 04:11:10;;;;;;;22.45;4.00;;;;;;;8.90;100.00;100451.91;5097773;28;20027;-74
2022/02/17 04:13:35;;;;;;;25.38;4.28;;;;;;;8.86;100.00;100437.81;5085094;28;20039;-74
2022/02/17 04:16:01;;;;;;;25.88;4.28;;;;;;;8.86;100.00;100425.88;5097861;28;20520;-74
2022/02/17 04:18:26;;;;;;;29.15;4.78;;;;;;;8.80;100.00;100427.03;5083901;28;20404;-74
2022/02/17 04:20:52;;;;;;;23.77;3.88;;;;;;;8.79;100.00;100425.38;5088093;28;20028;-74
2022/02/17 04:23:17;;;;;;;30.08;4.53;;;;;;;8.77;100.00;100433.13;5081318;28;20036;-74
2022/02/17 04:25:43;;;;;;;18.77;3.65;;;;;;;8.75;100.00;100433.44;5096746;28;20084;-74
2022/02/17 04:28:08;;;;;;;25.27;5.43;;;;;;;8.73;100.00;100430.94;5099214;28;20024;-74
2022/02/17 04:30:34;;;;;;;29.50;4.72;;;;;;;8.68;100.00;100428.19;5096817;28;20024;-74
2022/02/17 04:33:03;;;;;;;29.80;5.15;;;;;;;8.64;100.00;100435.41;5087283;27;20050;-74
2022/02/17 04:35:29;;;;;;;27.17;4.88;;;;;;;8.64;100.00;100437.34;5087661;27;20551;-74
2022/02/17 04:37:54;;;;;;;23.42;4.22;;;;;;;8.62;100.00;100453.41;5110076;27;20024;-74
2022/02/17 04:42:17;;;;;;;35.53;5.53;;;;;;;8.58;100.00;100474.44;5087958;27;20035;-74
2022/02/17 04:43:06;;;;;;;32.72;4.82;;;;;;;8.53;100.00;100469.78;5104833;27;20036;-74
2022/02/17 04:45:31;;;;;;;28.70;4.57;;;;;;;8.50;100.00;100479.47;5081765;27;20069;-74
2022/02/17 04:47:58;;;;;;;31.48;4.57;;;;;;;8.48;100.00;100489.97;5103886;28;20031;-74
2022/02/17 04:50:24;;;;;;;27.63;4.88;;;;;;;8.44;100.00;100493.59;5100361;28;20028;-74
2022/02/17 04:52:50;;;;;;;26.15;4.38;;;;;;;8.38;100.00;100498.25;5081086;28;20509;-74
2022/02/17 04:55:15;;;;;;;39.05;5.18;;;;;;;8.31;100.00;100514.34;5099648;27;20065;-74
2022/02/17 04:57:41;;;;;;;32.92;5.25;;;;;;;8.27;100.00;100511.31;5084984;28;20036;-74
2022/02/17 05:00:07;;;;;;;31.20;5.18;;;;;;;8.27;100.00;100524.28;5097313;27;20020;-74
2022/02/17 05:02:33;;;;;;;27.70;4.55;;;;;;;8.21;100.00;100542.84;5078443;27;20038;-74
2022/02/17 05:04:59;;;;;;;32.53;4.70;;;;;;;8.20;100.00;100540.38;5084750;27;20039;-74
2022/02/17 05:07:24;;;;;;;31.27;5.45;;;;;;;8.14;100.00;100528.47;5106171;28;20028;-74
2022/02/17 05:09:49;;;;;;;24.98;4.70;;;;;;;8.11;100.00;100533.72;5096187;27;20479;-74
2022/02/17 05:12:15;;;;;;;32.78;5.32;;;;;;;8.06;100.00;100549.22;5090785;27;20088;-74
2022/02/17 05:14:40;;;;;;;37.78;6.70;;;;;;;8.02;100.00;100541.72;5100066;27;20024;-74
2022/02/17 05:17:06;;;;;;;28.85;5.28;;;;;;;7.96;100.00;100537.31;5076730;28;20032;-74
2022/02/17 05:19:31;;;;;;;43.53;6.90;;;;;;;7.91;100.00;100549.22;5086433;28;20082;-74
2022/02/17 05:21:57;;;;;;;34.53;5.32;;;;;;;7.86;100.00;100556.69;5111508;28;20031;-74
2022/02/17 05:24:23;;;;;;;40.05;5.68;;;;;;;7.82;100.00;100570.19;5095292;27;20073;-74
2022/02/17 05:26:48;;;;;;;35.42;5.63;;;;;;;7.79;100.00;100585.41;5085146;28;20415;-74
2022/02/17 05:29:14;;;;;;;36.17;4.90;;;;;;;7.75;100.00;100572.41;5099731;28;20126;-74
2022/02/17 05:31:39;;;;;;;38.95;5.15;;;;;;;7.68;100.00;100569.91;5096796;28;20035;-73
2022/02/17 05:34:05;;;;;;;37.28;5.90;;;;;;;7.65;100.00;100556.63;5082596;28;20044;-74
2022/02/17 05:36:30;;;;;;;35.72;5.03;;;;;;;7.63;100.00;100556.06;5114349;27;20035;-74
2022/02/17 05:38:56;;;;;;;33.00;5.85;;;;;;;7.58;100.00;100550.56;5077261;28;20047;-74
2022/02/17 05:41:21;;;;;;;35.92;6.03;;;;;;;7.56;100.00;100555.53;5072385;28;20044;-74
2022/02/17 05:43:47;;;;;;;30.67;5.13;;;;;;;7.51;100.00;100561.03;5090887;27;20031;-74
2022/02/17 05:46:12;;;;;;;35.15;5.45;;;;;;;7.47;100.00;100548.88;5102997;28;20484;-74
2022/02/17 05:48:38;;;;;;;35.85;5.10;;;;;;;7.44;100.00;100558.53;5066905;28;20488;-74
2022/02/17 05:51:04;;;;;;;34.47;5.30;;;;;;;7.39;100.00;100553.81;5107851;27;20147;-74
2022/02/17 05:53:29;;;;;;;33.28;5.30;;;;;;;7.36;100.00;100572.88;5110631;28;20042;-74
2022/02/17 05:55:55;;;;;;;30.67;5.35;;;;;;;7.31;100.00;100587.50;5102369;28;20046;-74
2022/02/17 05:58:20;;;;;;;35.08;5.75;;;;;;;7.26;100.00;100581.94;5077491;28;20031;-74
2022/02/17 06:00:46;;;;;;;31.20;5.25;;;;;;;7.24;100.00;100588.84;5092949;28;20038;-74
2022/02/17 06:03:11;;;;;;;33.55;5.15;;;;;;;7.18;100.00;100599.03;5096060;28;20614;-74
2022/02/17 06:05:37;;;;;;;36.38;5.95;;;;;;;7.13;100.00;100608.16;5102123;27;20038;-74
2022/02/17 06:08:05;;;;;;;37.88;6.85;;;;;;;7.08;100.00;100616.41;5113500;27;20072;-74
2022/02/17 06:10:31;;;;;;;35.75;5.50;;;;;;;7.03;100.00;100610.84;5094847;27;20034;-74
2022/02/17 06:12:56;;;;;;;28.40;4.55;;;;;;;7.00;100.00;100610.56;5108806;28;20035;-74
2022/02/17 06:15:22;;;;;;;36.20;6.03;;;;;;;6.98;100.00;100604.47;5098389;28;20024;-74
2022/02/17 06:17:47;;;;;;;30.08;5.60;;;;;;;6.96;100.00;100612.16;5097946;28;20423;-74
2022/02/17 06:20:13;;;;;;;38.03;6.22;;;;;;;6.89;100.00;100602.22;5093508;28;20039;-74
2022/02/17 06:22:45;;;;;;;28.02;5.22;;;;;;;6.87;100.00;100612.69;5077081;28;20039;-74
2022/02/17 06:25:11;;;;;;;33.67;5.18;;;;;;;6.83;100.00;100622.59;5073463;28;20027;-74
2022/02/17 06:27:36;;;;;;;40.58;5.68;;;;;;;6.80;100.00;100622.28;5090042;27;20027;-74
2022/02/17 06:30:04;;;;;;;34.60;5.72;;;;;;;6.77;100.00;100634.72;5081729;28;21538;-74
2022/02/17 06:32:29;;;;;;;28.77;5.72;;;;;;;6.72;100.00;100640.19;5091912;27;20106;-74
2022/02/17 06:34:54;;;;;;;24.77;4.22;;;;;;;6.69;100.00;100636.03;5091914;27;20066;-74
2022/02/17 06:37:20;;;;;;;34.15;5.78;;;;;;;6.64;100.00;100641.50;5092146;27;20080;-74
2022/02/17 06:39:45;;;;;;;38.20;6.13;;;;;;;6.64;100.00;100627.72;5080850;28;20028;-74
2022/02/17 06:42:11;;;;;;;35.13;5.60;;;;;;;6.60;100.00;100615.56;5090983;27;20114;-72
2022/02/17 06:44:36;;;;;;;39.33;6.25;;;;;;;6.54;100.00;100624.88;5078859;28;20399;-72
2022/02/17 06:47:03;;;;;;;38.25;6.15;;;;;;;6.48;100.00;100640.56;5113882;27;20039;-74
2022/02/17 06:49:29;;;;;;;32.08;5.15;;;;;;;6.47;100.00;100641.66;5089453;27;20035;-74
2022/02/17 06:51:55;;;;;;;37.85;6.63;;;;;;;6.45;100.00;100632.81;5084966;28;20032;-75
2022/02/17 06:54:21;;;;;;;35.80;5.72;;;;;;;6.41;100.00;100650.19;5083860;27;20043;-74
2022/02/17 06:56:46;;;;;;;36.88;6.47;;;;;;;6.39;100.00;100650.41;5072640;28;20093;-75
2022/02/17 06:59:12;;;;;;;39.42;6.00;;;;;;;6.36;100.00;100652.88;5109573;28;20117;-74
2022/02/17 07:01:38;;;;;;;34.03;6.13;;;;;;;6.32;100.00;100647.03;5128622;27;20542;-74
2022/02/17 07:04:03;;;;;;;44.60;6.15;;;;;;;6.31;100.00;100666.63;5123849;27;20046;-75
2022/02/17 07:06:29;;;;;;;39.38;6.43;;;;;;;6.26;100.00;100653.59;5085852;28;20028;-74
2022/02/17 07:08:54;;;;;;;38.53;5.65;;;;;;;6.23;100.00;100637.59;5092981;28;20039;-75
2022/02/17 07:11:20;;;;;;;33.53;5.80;;;;;;;6.22;100.00;100656.06;5135062;27;20547;-75
2022/02/17 07:13:46;;;;;;;38.47;6.40;;;;;;;6.17;100.00;100650.50;5127312;27;20485;-74
2022/02/17 07:16:11;;;;;;;26.20;5.22;;;;;;;6.15;100.00;100657.38;5108772;27;20488;-75
2022/02/17 07:18:37;;;;;;;37.88;5.90;;;;;;;6.13;100.00;100663.16;5126101;27;20027;-75
2022/02/17 07:21:05;;;;;;;41.42;5.28;;;;;;;6.13;100.00;100645.75;5124546;27;20031;-75
2022/02/17 07:23:30;;;;;;;44.03;6.13;;;;;;;6.07;100.00;100653.16;5121667;27;20032;-74
2022/02/17 07:25:56;;;;;;;35.25;6.43;;;;;;;6.05;100.00;100666.38;5107200;27;20027;-75
2022/02/17 07:28:22;;;;;;;35.25;6.38;;;;;;;6.03;100.00;100688.69;5095589;28;20148;-75
2022/02/17 07:30:47;;;;;;;35.30;6.43;;;;;;;5.99;100.00;100694.97;5095436;28;20032;-76
2022/02/17 07:33:13;;;;;;;35.83;5.70;;;;;;;5.97;100.00;100692.50;5071361;28;20047;-75
2022/02/17 07:35:39;;;;;;;38.33;6.68;;;;;;;5.97;100.00;100692.50;5072870;28;20042;-74
2022/02/17 07:38:06;;;;;;;41.83;7.07;;;;;;;5.97;100.00;100697.19;5072810;28;20032;-75
2022/02/17 07:40:35;;;;;;;47.08;6.90;;;;;;;5.96;100.00;100707.38;5088232;28;20059;-75
2022/02/17 07:43:01;;;;;;;39.38;6.55;;;;;;;5.98;100.00;100709.84;5098516;28;20043;-75
2022/02/17 07:45:26;;;;;;;46.08;6.68;;;;;;;6.00;100.00;100718.72;5091667;28;20129;-75
2022/02/17 07:47:54;;;;;;;37.70;6.57;;;;;;;6.03;100.00;100724.53;5094716;28;20032;-75
2022/02/17 07:50:21;;;;;;;35.58;6.00;;;;;;;6.07;100.00;100722.06;5095166;28;20031;-75
2022/02/17 07:52:46;;;;;;;37.78;6.50;;;;;;;6.12;100.00;100727.66;5093187;28;20042;-75
2022/02/17 07:55:12;;;;;;;48.60;7.28;;;;;;;6.18;100.00;100723.84;5097878;28;20028;-75
2022/02/17 07:57:38;;;;;;;31.85;6.13;;;;;;;6.24;100.00;100703.53;5078462;28;20028;-75
2022/02/17 08:00:04;;;;;;;42.05;6.88;;;;;;;6.29;100.00;100715.69;5074435;28;20100;-75
2022/02/17 08:02:29;;;;;;;38.25;6.35;;;;;;;6.34;100.00;100729.53;5096652;28;20028;-75
2022/02/17 08:04:55;;;;;;;40.42;7.00;;;;;;;6.39;100.00;100735.13;5068084;28;20167;-75
2022/02/17 08:07:20;;;;;;;44.72;7.13;;;;;;;6.46;100.00;100738.47;5076329;28;20027;-75
2022/02/17 08:09:46;;;;;;;43.38;7.28;;;;;;;6.54;100.00;100731.66;5073136;28;20035;-75
2022/02/17 08:12:11;;;;;;;37.95;6.20;;;;;;;6.63;100.00;100721.78;5086369;28;20028;-75
2022/02/17 08:14:36;;;;;;;41.75;6.72;;;;;;;6.69;100.00;100715.25;5074161;28;20034;-75
2022/02/17 08:17:03;;;;;;;38.70;6.03;;;;;;;6.78;100.00;100726.63;5077900;28;20032;-75
2022/02/17 08:19:30;;;;;;;37.83;6.40;;;;;;;6.84;100.00;100740.22;5091719;28;20031;-74
2022/02/17 08:21:55;;;;;;;42.17;6.05;;;;;;;6.91;100.00;100740.81;5078910;28;20034;-75
2022/02/17 08:24:21;;;;;;;41.25;6.22;;;;;;;7.00;100.00;100745.88;5097447;28;20439;-74
2022/02/17 08:26:46;;;;;;;39.45;5.80;;;;;;;7.10;100.00;100749.53;5110305;28;20472;-74
2022/02/17 08:29:12;;;;;;;36.97;6.68;;;;;;;7.20;100.00;100748.75;5081266;28;20039;-75
2022/02/17 08:31:38;;;;;;;49.08;7.38;;;;;;;7.31;100.00;100757.97;5076520;28;20036;-75
2022/02/17 08:34:04;;;;;;;37.55;6.32;;;;;;;7.41;100.00;100759.94;5098144;28;20666;-74
2022/02/17 08:36:33;;;;;;;47.05;8.23;;;;;;;7.52;100.00;100778.25;5092938;28;20080;-75
2022/02/17 08:38:59;;;;;;;43.42;6.78;;;;;;;7.63;100.00;100768.91;5070906;28;20034;-75
2022/02/17 08:41:25;;;;;;;52.83;7.32;;;;;;;7.74;100.00;100776.16;5076107;28;20031;-75
2022/02/17 08:43:51;;;;;;;41.78;7.55;;;;;;;7.86;100.00;100775.13;5078596;28;20093;-75
2022/02/17 08:46:16;;;;;;;49.42;8.48;;;;;;;7.96;100.00;100777.91;5081011;28;20475;-74
2022/02/17 08:48:42;;;;;;;60.15;9.20;;;;;;;8.06;100.00;100783.50;5100154;28;20035;-75
2022/02/17 08:51:08;;;;;;;57.80;7.85;;;;;;;8.17;100.00;100785.22;5108292;28;20123;-75
2022/02/17 08:53:33;;;;;;;39.63;7.93;;;;;;;8.28;100.00;100794.38;5118789;28;20027;-75
2022/02/17 08:55:59;;;;;;;46.88;7.30;;;;;;;8.40;100.00;100806.06;5072293;28;20024;-75
2022/02/17 08:58:24;;;;;;;50.60;8.00;;;;;;;8.51;100.00;100806.91;5080083;27;20032;-75
2022/02/17 09:00:50;;;;;;;56.22;7.88;;;;;;;8.62;100.00;100803.06;5114565;27;20038;-75
2022/02/17 09:03:15;;;;;;;53.83;9.52;;;;;;;8.73;100.00;100781.78;5109080;27;20478;-75
2022/02/17 09:05:41;;;;;;;49.40;7.93;;;;;;;8.86;100.00;100799.75;5090794;27;20100;-75
2022/02/17 09:08:09;;;;;;;61.10;8.57;;;;;;;8.98;100.00;100811.44;5117581;27;20024;-75
2022/02/17 09:10:35;;;;;;;54.53;8.40;;;;;;;9.10;100.00;100813.91;5085307;27;20131;-75
2022/02/17 09:13:01;;;;;;;62.25;9.05;;;;;;;9.23;100.00;100807.81;5088698;28;20071;-75
2022/02/17 09:15:26;;;;;;;60.53;9.35;;;;;;;9.36;100.00;100793.41;5093886;27;20035;-75
2022/02/17 09:17:52;;;;;;;55.05;8.80;;;;;;;9.50;100.00;100798.34;5084721;28;20077;-75
2022/02/17 09:20:17;;;;;;;66.57;9.93;;;;;;;9.61;100.00;100800.84;5103071;27;20039;-75
2022/02/17 09:22:43;;;;;;;67.55;9.82;;;;;;;9.73;100.00;100800.53;5085048;28;20027;-75
2022/02/17 09:25:08;;;;;;;65.07;11.02;;;;;;;9.87;100.00;100816.59;5086994;27;20032;-75
2022/02/17 09:27:34;;;;;;;72.45;9.25;;;;;;;9.97;100.00;100811.84;5080134;27;20019;-75
2022/02/17 09:30:01;;;;;;;69.82;9.63;;;;;;;10.09;100.00;100811.53;5090689;28;20145;-75
2022/02/17 09:32:26;;;;;;;58.05;9.52;;;;;;;10.22;100.00;100812.84;5098856;27;20099;-75
2022/02/17 09:34:52;;;;;;;67.95;10.30;;;;;;;10.35;100.00;100822.53;5089092;28;20473;-76
2022/02/17 09:37:17;;;;;;;62.13;9.52;;;;;;;10.44;100.00;100832.75;5111170;27;20471;-76
2022/02/17 09:39:44;;;;;;;69.72;10.70;;;;;;;10.56;100.00;100828.81;5090337;28;20472;-76
2022/02/17 09:42:09;;;;;;;65.10;9.50;;;;;;;10.67;100.00;100822.94;5116979;27;20126;-76
2022/02/17 09:44:37;;;;;;;70.82;10.65;;;;;;;10.80;100.00;100827.00;5131166;27;20047;-76
2022/02/17 09:47:04;;;;;;;71.72;10.80;;;;;;;10.91;100.00;100803.59;5129853;27;20059;-77
2022/02/17 09:49:32;;;;;;;71.53;9.80;;;;;;;11.03;100.00;100816.28;5073149;27;20031;-76
2022/02/17 09:51:57;;;;;;;69.43;10.05;;;;;;;11.11;100.00;100802.59;5097765;28;20069;-77
2022/02/17 09:54:23;;;;;;;70.35;10.73;;;;;;;11.24;100.00;100817.78;5100768;27;20036;-77
2022/02/17 09:56:49;;;;;;;69.18;10.40;;;;;;;11.35;100.00;100824.91;5091841;28;20391;-77
2022/02/17 09:59:15;;;;;;;75.57;10.60;;;;;;;11.45;100.00;100835.13;5123185;27;20111;-76
2022/02/17 10:01:52;;;;;;;72.07;10.18;;;;;;;11.53;100.00;100814.19;5107749;27;20035;-77
2022/02/17 10:04:18;;;;;;;75.50;10.68;;;;;;;11.63;100.00;100826.03;5101661;27;20028;-77
2022/02/17 10:06:46;;;;;;;69.15;10.23;;;;;;;11.72;100.00;100854.03;5099734;27;20476;-77
2022/02/17 10:09:13;;;;;;;65.15;11.55;;;;;;;11.85;100.00;100849.75;5103386;27;20024;-77
2022/02/17 10:11:39;;;;;;;75.45;10.57;;;;;;;11.98;100.00;100837.09;5099817;28;20441;-77
2022/02/17 10:14:09;;;;;;;69.03;10.00;;;;;;;12.08;100.00;100823.06;5095881;28;20036;-77
2022/02/17 10:17:04;;;;;;;72.05;10.60;;;;;;;12.21;100.00;100824.31;5082515;27;20036;-77
2022/02/17 10:19:37;;;;;;;65.85;10.05;;;;;;;12.33;100.00;100810.78;5124380;27;20039;-77
2022/02/17 10:22:05;;;;;;;69.18;10.23;;;;;;;12.43;100.00;100810.66;5071513;28;20035;-77
2022/02/17 10:24:35;;;;;;;78.50;11.23;;;;;;;12.57;100.00;100816.34;5118510;27;20031;-77
2022/02/17 10:27:11;;;;;;;72.43;11.18;;;;;;;12.68;100.00;100814.22;5080483;28;20375;-77
2022/02/17 10:29:36;;;;;;;71.03;10.23;;;;;;;12.81;100.00;100795.91;5099702;27;20035;-77
2022/02/17 10:32:10;;;;;;;68.20;10.23;;;;;;;12.94;100.00;100823.03;5114890;27;20699;-77
2022/02/17 10:34:36;;;;;;;59.53;10.15;;;;;;;13.02;100.00;100833.50;5111417;27;20044;-77
2022/02/17 10:37:02;;;;;;;54.95;9.25;;;;;;;13.10;100.00;100835.59;5137230;27;20042;-77
2022/02/17 10:39:28;;;;;;;66.72;9.98;;;;;;;13.19;100.00;100844.09;5110235;27;20137;-77
2022/02/17 10:41:55;;;;;;;63.15;9.75;;;;;;;13.26;100.00;100844.59;5088032;28;20037;-77
2022/02/17 10:44:24;;;;;;;57.97;9.90;;;;;;;13.34;100.00;100840.25;5116749;27;20106;-77
2022/02/17 10:46:49;;;;;;;62.92;9.13;;;;;;;13.42;100.00;100836.78;5089570;28;20099;-77
2022/02/17 10:49:19;;;;;;;50.75;8.05;;;;;;;13.49;100.00;100826.06;5064973;27;20036;-77
2022/02/17 10:51:45;;;;;;;56.22;8.35;;;;;;;13.57;100.00;100828.16;5089341;28;20024;-77
2022/02/17 10:54:10;;;;;;;64.07;9.05;;;;;;;13.63;100.00;100826.91;5116802;27;20036;-77
2022/02/17 10:56:36;;;;;;;48.75;8.13;;;;;;;13.71;100.00;100821.78;5104575;28;20032;-77
2022/02/17 10:59:03;;;;;;;51.92;9.52;;;;;;;13.76;100.00;100819.72;5107901;27;20490;-77
2022/02/17 11:01:29;;;;;;;53.03;8.38;;;;;;;13.86;100.00;100844.63;5111831;27;20495;-77
2022/02/17 11:03:54;;;;;;;51.92;8.38;;;;;;;13.94;100.00;100833.91;5123808;27;20034;-75
2022/02/17 11:06:21;;;;;;;55.30;9.25;;;;;;;14.02;100.00;100834.00;5110358;27;20028;-77
2022/02/17 11:08:48;;;;;;;54.15;7.68;;;;;;;14.11;100.00;100830.50;5093032;27;20027;-77